Terminal Aerodrome Forecast
Issued by NWS Wilmington, OH

Current Version | Previous Version | Text Only | Print | Product List | Glossary Off
Versions: 1 2 3 4 5 6 7 8 9 10 11 12 13 14 15 16 17 18 19 20 21 22 23

000
FTUS41 KILN 271700
TAFILN
TAF
KILN 271739Z 2718/2818 23015G25KT P6SM VCSH BKN025
     FM271900 25013G23KT P6SM VCTS BKN025CB
     FM272200 27014G23KT P6SM VCSH OVC025
     FM280000 28014KT P6SM BKN025
     FM280200 28010KT P6SM SCT050
     FM281000 29010KT P6SM OVC012
     FM281500 30012KT P6SM -SHRA OVC025=

USA.gov is the U.S. government's official web portal to all federal, state and local government web resources and services.